Time;durP1;ratioP1;P1;durP2;ratioP2;P2;SDS_P1;SDS_P2;PMS_P1;PMS_P2;Temp;Humidity;BMP_temperature;BMP_pressure;BME280_temperature;BME280_humidity;BME280_pressure;Samples;Min_cycle;Max_cycle;Signal;HPM_P1;HPM_P2
2021/06/24 00:00:44;;;;;;;12.83;11.43;;;18.30;79.80;;;;;;5116679;28;20459;-70
2021/06/24 00:03:10;;;;;;;14.17;11.30;;;18.20;79.70;;;;;;5116750;28;20480;-70
2021/06/24 00:05:37;;;;;;;10.47;9.37;;;18.20;79.80;;;;;;5116661;28;20446;-70
2021/06/24 00:08:06;;;;;;;11.33;10.20;;;18.20;79.90;;;;;;5116667;28;20439;-71
2021/06/24 00:10:33;;;;;;;12.03;10.50;;;18.20;80.00;;;;;;5116561;28;20474;-70
2021/06/24 00:13:00;;;;;;;11.13;10.00;;;18.20;80.00;;;;;;5116583;28;20443;-70
2021/06/24 00:15:27;;;;;;;12.03;10.80;;;18.20;80.00;;;;;;5116514;28;20475;-70
2021/06/24 00:17:53;;;;;;;13.73;11.10;;;18.10;79.80;;;;;;5116588;28;20454;-70
2021/06/24 00:20:20;;;;;;;11.97;10.73;;;18.10;79.80;;;;;;5116060;28;20475;-71
2021/06/24 00:22:47;;;;;;;12.40;11.30;;;18.00;79.80;;;;;;5116479;28;20435;-71
2021/06/24 00:25:15;;;;;;;12.60;11.57;;;18.00;79.80;;;;;;5116064;28;20450;-71
2021/06/24 00:27:42;;;;;;;14.27;12.87;;;18.00;79.80;;;;;;5116494;28;20435;-71
2021/06/24 00:30:10;;;;;;;12.20;10.23;;;17.90;79.50;;;;;;5116370;28;20470;-71
2021/06/24 00:32:37;;;;;;;11.93;10.83;;;17.90;79.50;;;;;;5115861;28;20959;-70
2021/06/24 00:35:05;;;;;;;11.83;10.83;;;17.90;79.70;;;;;;5116155;28;20470;-70
2021/06/24 00:37:33;;;;;;;13.87;12.57;;;17.90;79.90;;;;;;5116254;28;20450;-70
2021/06/24 00:40:00;;;;;;;13.43;12.10;;;17.90;80.10;;;;;;5115920;28;21017;-71
2021/06/24 00:42:29;;;;;;;12.73;11.53;;;17.80;80.10;;;;;;5116051;28;20443;-70
2021/06/24 00:44:56;;;;;;;15.40;13.60;;;17.80;80.40;;;;;;5116082;28;20439;-70
2021/06/24 00:47:23;;;;;;;14.90;13.60;;;17.80;80.50;;;;;;5115951;28;20443;-71
2021/06/24 00:49:51;;;;;;;14.40;13.27;;;17.80;80.50;;;;;;5115572;28;21003;-71
2021/06/24 00:52:18;;;;;;;14.33;12.80;;;17.80;80.60;;;;;;5115636;28;20483;-70
2021/06/24 00:54:45;;;;;;;13.07;11.87;;;17.80;80.70;;;;;;5115800;28;20486;-70
2021/06/24 00:57:12;;;;;;;13.10;11.97;;;17.80;80.90;;;;;;5115841;28;20520;-70
2021/06/24 00:59:40;;;;;;;14.70;13.60;;;17.80;81.10;;;;;;5115656;28;20442;-70
2021/06/24 01:02:07;;;;;;;14.03;12.77;;;17.70;81.30;;;;;;5115769;28;20439;-69
2021/06/24 01:04:34;;;;;;;14.47;13.07;;;17.70;81.50;;;;;;5115729;28;20443;-70
2021/06/24 01:07:02;;;;;;;16.73;15.10;;;17.70;81.70;;;;;;5115469;28;20443;-69
2021/06/24 01:09:29;;;;;;;18.23;15.43;;;17.70;81.90;;;;;;5115374;28;20446;-70
2021/06/24 01:11:55;;;;;;;15.43;13.93;;;17.70;82.20;;;;;;5115063;28;20967;-70
2021/06/24 01:14:23;;;;;;;14.40;13.00;;;17.70;82.50;;;;;;5115339;28;20471;-69
2021/06/24 01:16:53;;;;;;;15.27;13.70;;;17.70;82.80;;;;;;5115399;28;20451;-71
2021/06/24 01:19:19;;;;;;;13.70;12.37;;;17.70;83.10;;;;;;5115231;28;20462;-70
2021/06/24 01:21:47;;;;;;;14.73;12.97;;;17.70;83.30;;;;;;5115231;28;20467;-70
2021/06/24 01:24:16;;;;;;;14.93;13.33;;;17.70;83.50;;;;;;5115239;28;20849;-71
2021/06/24 01:26:43;;;;;;;18.63;12.63;;;17.70;83.60;;;;;;5115204;28;20442;-70
2021/06/24 01:29:10;;;;;;;13.73;12.53;;;17.70;83.60;;;;;;5114915;28;20923;-71
2021/06/24 01:31:37;;;;;;;13.53;12.30;;;17.70;83.50;;;;;;5115056;28;20466;-70
2021/06/24 01:34:06;;;;;;;14.00;12.60;;;17.80;83.60;;;;;;5114930;28;20469;-70
2021/06/24 01:36:33;;;;;;;13.67;12.27;;;17.70;83.50;;;;;;5114930;28;20468;-70
2021/06/24 01:39:00;;;;;;;12.43;11.10;;;17.70;83.50;;;;;;5114823;28;20439;-70
2021/06/24 01:41:28;;;;;;;12.93;10.93;;;17.70;83.50;;;;;;5114828;28;20463;-71
2021/06/24 01:43:55;;;;;;;13.73;12.53;;;17.70;83.60;;;;;;5114754;28;20439;-70
2021/06/24 01:46:21;;;;;;;11.60;10.40;;;17.70;83.70;;;;;;5114789;28;20450;-70
2021/06/24 01:48:48;;;;;;;16.73;11.67;;;17.70;83.90;;;;;;5114792;28;20430;-70
2021/06/24 01:51:15;;;;;;;13.30;11.50;;;17.70;84.00;;;;;;5114349;28;20980;-70
2021/06/24 01:53:42;;;;;;;12.37;11.13;;;17.70;84.20;;;;;;5114624;28;20442;-70
2021/06/24 01:56:09;;;;;;;13.93;11.70;;;17.70;84.40;;;;;;5114519;28;20556;-71
2021/06/24 01:58:38;;;;;;;13.13;11.93;;;17.70;84.50;;;;;;5114601;28;20443;-70
2021/06/24 02:01:05;;;;;;;14.83;10.83;;;17.70;84.60;;;;;;5114360;28;20470;-71
2021/06/24 02:03:35;;;;;;;13.23;11.90;;;17.60;85.30;;;;;;5113540;28;20447;-70
2021/06/24 02:06:02;;;;;;;11.77;10.87;;;17.70;84.80;;;;;;5114375;28;20439;-70
2021/06/24 02:08:30;;;;;;;12.63;11.30;;;17.60;84.70;;;;;;5114240;28;20446;-70
2021/06/24 02:10:58;;;;;;;12.50;11.40;;;17.70;84.90;;;;;;5114321;28;20463;-70
2021/06/24 02:13:26;;;;;;;12.03;10.90;;;17.60;84.70;;;;;;5114143;28;20466;-70
2021/06/24 02:15:55;;;;;;;12.10;11.00;;;17.60;84.70;;;;;;5114992;28;20471;-69
2021/06/24 02:18:21;;;;;;;11.40;10.20;;;17.60;84.70;;;;;;5114228;28;20446;-70
2021/06/24 02:20:48;;;;;;;11.17;10.10;;;17.60;84.80;;;;;;5114044;28;20482;-71
2021/06/24 02:23:15;;;;;;;12.50;10.80;;;17.60;84.60;;;;;;5114163;28;20460;-70
2021/06/24 02:25:43;;;;;;;11.10;9.90;;;17.60;84.40;;;;;;5114194;28;20435;-70
2021/06/24 02:28:10;;;;;;;10.53;9.60;;;17.60;83.90;;;;;;5114149;28;20449;-70
2021/06/24 02:30:37;;;;;;;10.50;9.50;;;17.60;83.80;;;;;;5114118;28;20467;-70
2021/06/24 02:33:09;;;;;;;10.60;9.40;;;17.50;83.70;;;;;;5114147;28;20446;-69
2021/06/24 02:35:37;;;;;;;11.63;9.53;;;17.50;83.60;;;;;;5113685;28;20485;-71
2021/06/24 02:38:05;;;;;;;10.20;8.80;;;17.50;83.40;;;;;;5113630;28;20438;-69
2021/06/24 02:40:31;;;;;;;10.33;9.33;;;17.40;83.20;;;;;;5114003;28;20467;-70
2021/06/24 02:42:58;;;;;;;9.90;8.60;;;17.40;83.10;;;;;;5113677;28;20955;-71
2021/06/24 02:45:25;;;;;;;10.37;8.90;;;17.40;83.20;;;;;;5113660;28;20845;-70
2021/06/24 02:47:52;;;;;;;15.10;10.10;;;17.30;83.00;;;;;;5113585;28;20937;-70
2021/06/24 02:50:20;;;;;;;9.87;8.87;;;17.30;82.90;;;;;;5113822;28;20462;-71
2021/06/24 02:52:47;;;;;;;14.07;9.40;;;17.30;83.00;;;;;;5113905;28;20470;-70
2021/06/24 02:55:14;;;;;;;10.00;9.10;;;17.20;83.10;;;;;;5113776;28;20478;-70
2021/06/24 02:57:41;;;;;;;10.53;9.60;;;17.20;83.30;;;;;;5113858;28;20447;-70
2021/06/24 03:00:10;;;;;;;10.03;8.90;;;17.20;83.30;;;;;;5114045;28;20489;-71
2021/06/24 03:02:38;;;;;;;11.60;10.07;;;17.20;83.50;;;;;;5113856;28;20427;-70
2021/06/24 03:05:06;;;;;;;10.10;9.13;;;17.20;84.10;;;;;;5113827;28;20452;-70
2021/06/24 03:07:34;;;;;;;12.00;10.07;;;17.20;84.10;;;;;;5113545;28;20450;-71
2021/06/24 03:10:01;;;;;;;10.50;9.17;;;17.20;83.30;;;;;;5113692;28;20466;-70
2021/06/24 03:12:28;;;;;;;18.10;10.57;;;17.20;83.20;;;;;;5113751;28;20450;-69
2021/06/24 03:14:55;;;;;;;12.07;8.73;;;17.10;83.10;;;;;;5115051;28;20994;-69
2021/06/24 03:17:21;;;;;;;9.20;8.40;;;17.10;83.10;;;;;;5117895;28;20427;-69
2021/06/24 03:19:48;;;;;;;12.13;9.90;;;17.10;83.20;;;;;;5117336;28;20512;-69
2021/06/24 03:22:15;;;;;;;9.83;8.90;;;17.10;83.40;;;;;;5117184;28;20454;-70
2021/06/24 03:24:43;;;;;;;10.60;9.60;;;17.10;83.60;;;;;;5117147;28;20808;-69
2021/06/24 03:27:10;;;;;;;11.03;9.80;;;17.10;83.80;;;;;;5117484;28;20438;-69
2021/06/24 03:29:37;;;;;;;15.37;10.37;;;17.10;84.10;;;;;;5117007;28;20443;-70
2021/06/24 03:32:04;;;;;;;13.30;9.50;;;17.10;84.10;;;;;;5117288;28;20469;-69
2021/06/24 03:34:31;;;;;;;12.40;11.17;;;17.10;84.70;;;;;;5117195;28;20804;-70
2021/06/24 03:36:58;;;;;;;16.30;10.97;;;17.10;85.00;;;;;;5117234;28;20439;-70
2021/06/24 03:39:24;;;;;;;14.30;10.30;;;17.10;85.30;;;;;;5117096;28;20446;-69
2021/06/24 03:41:52;;;;;;;13.17;10.63;;;17.10;85.80;;;;;;5116709;28;20976;-70
2021/06/24 03:44:19;;;;;;;12.00;10.33;;;17.10;86.20;;;;;;5117056;28;20451;-70
2021/06/24 03:46:46;;;;;;;13.33;10.90;;;17.10;86.50;;;;;;5117041;28;20812;-69
2021/06/24 03:49:12;;;;;;;14.47;11.60;;;17.20;86.90;;;;;;5116869;28;20454;-69
2021/06/24 03:51:39;;;;;;;13.00;10.40;;;17.20;87.20;;;;;;5116527;28;20828;-69
2021/06/24 03:54:06;;;;;;;14.23;10.50;;;17.20;87.30;;;;;;5116816;28;20446;-70
2021/06/24 03:56:33;;;;;;;12.87;11.43;;;17.20;87.40;;;;;;5116783;28;20474;-71
2021/06/24 03:59:01;;;;;;;13.03;10.23;;;17.20;87.60;;;;;;5116785;28;20435;-69
2021/06/24 04:01:29;;;;;;;14.50;11.43;;;17.20;87.70;;;;;;5116355;28;20465;-70
2021/06/24 04:03:55;;;;;;;15.43;11.00;;;17.20;87.80;;;;;;5116700;28;20537;-70
2021/06/24 04:06:22;;;;;;;13.40;11.10;;;17.20;88.00;;;;;;5116367;28;20439;-70
2021/06/24 04:08:49;;;;;;;13.33;10.07;;;17.20;88.00;;;;;;5116599;28;20453;-69
2021/06/24 04:11:15;;;;;;;11.60;10.33;;;17.20;88.10;;;;;;5116492;28;20466;-72
2021/06/24 04:13:42;;;;;;;11.03;9.77;;;17.30;88.40;;;;;;5116516;28;20443;-70
2021/06/24 04:16:11;;;;;;;15.97;10.90;;;17.30;88.30;;;;;;5116408;28;20477;-70
2021/06/24 04:18:37;;;;;;;13.60;10.90;;;17.30;88.40;;;;;;5116410;28;20496;-70
2021/06/24 04:21:05;;;;;;;10.70;9.70;;;17.30;88.70;;;;;;5115944;28;20470;-69
2021/06/24 04:23:32;;;;;;;16.33;11.53;;;17.40;88.80;;;;;;5116392;28;20434;-69
2021/06/24 04:25:59;;;;;;;12.37;9.80;;;17.40;89.30;;;;;;5115628;28;20428;-69
2021/06/24 04:28:25;;;;;;;15.10;11.07;;;17.40;88.40;;;;;;5116296;28;20442;-70
2021/06/24 04:30:53;;;;;;;12.60;11.30;;;17.40;88.20;;;;;;5116175;28;20474;-70
2021/06/24 04:33:21;;;;;;;16.40;11.07;;;17.40;88.50;;;;;;5116214;28;20455;-72
2021/06/24 04:35:47;;;;;;;13.13;10.93;;;17.50;88.70;;;;;;5116034;28;20470;-71
2021/06/24 04:38:15;;;;;;;17.10;10.97;;;17.50;88.70;;;;;;5116088;28;20454;-71
2021/06/24 04:40:42;;;;;;;10.60;9.50;;;17.60;88.70;;;;;;5115913;28;20469;-71
2021/06/24 04:43:08;;;;;;;12.00;10.10;;;17.60;88.50;;;;;;5115712;28;20450;-71
2021/06/24 04:45:35;;;;;;;14.10;9.93;;;17.60;88.30;;;;;;5115965;28;20442;-71
2021/06/24 04:48:02;;;;;;;12.70;10.60;;;17.60;88.30;;;;;;5115841;28;20447;-70
2021/06/24 04:50:30;;;;;;;11.70;10.50;;;17.60;88.10;;;;;;5115434;28;20830;-71
2021/06/24 04:52:57;;;;;;;11.03;9.67;;;17.70;88.40;;;;;;5115744;28;20446;-70
2021/06/24 04:55:23;;;;;;;12.67;11.40;;;17.70;88.10;;;;;;5115675;28;20486;-70
2021/06/24 04:57:50;;;;;;;12.83;11.20;;;17.80;88.00;;;;;;5115762;28;20427;-70
2021/06/24 05:00:17;;;;;;;12.67;11.33;;;17.80;87.60;;;;;;5115606;28;20838;-70
2021/06/24 05:02:44;;;;;;;12.67;10.17;;;17.90;87.80;;;;;;5115514;28;20439;-71
2021/06/24 05:05:11;;;;;;;14.30;11.20;;;17.90;87.90;;;;;;5115575;28;20446;-71
2021/06/24 05:07:40;;;;;;;14.97;10.77;;;18.00;88.00;;;;;;5115501;28;20443;-70
2021/06/24 05:10:08;;;;;;;12.37;10.90;;;18.00;87.50;;;;;;5115093;28;20467;-71
2021/06/24 05:12:34;;;;;;;10.67;9.40;;;18.00;87.10;;;;;;5115501;28;20451;-70
2021/06/24 05:15:01;;;;;;;10.33;9.30;;;18.10;86.90;;;;;;5115503;28;20434;-70
2021/06/24 05:17:29;;;;;;;12.50;9.90;;;18.10;86.60;;;;;;5115320;28;20462;-70
2021/06/24 05:19:57;;;;;;;14.40;11.43;;;18.20;86.60;;;;;;5114922;28;20479;-71
2021/06/24 05:22:24;;;;;;;16.00;10.43;;;18.20;86.10;;;;;;5115191;28;20450;-70
2021/06/24 05:24:52;;;;;;;14.03;11.50;;;18.30;86.00;;;;;;5115166;28;20443;-70
2021/06/24 05:27:19;;;;;;;15.60;10.47;;;18.30;85.80;;;;;;5114808;28;20435;-70
2021/06/24 05:29:46;;;;;;;13.73;12.43;;;18.30;85.70;;;;;;5115015;28;20818;-71
2021/06/24 05:32:12;;;;;;;14.90;10.80;;;18.40;85.80;;;;;;5114946;28;20442;-70
2021/06/24 05:34:39;;;;;;;13.13;10.70;;;18.50;85.00;;;;;;5114584;28;20822;-70
2021/06/24 05:37:06;;;;;;;13.80;9.00;;;18.50;84.70;;;;;;5114614;28;20483;-70
2021/06/24 05:39:33;;;;;;;11.93;10.53;;;18.60;84.80;;;;;;5113861;28;20443;-71
2021/06/24 05:42:01;;;;;;;11.20;10.10;;;18.70;84.30;;;;;;5114818;28;20431;-71
2021/06/24 05:44:28;;;;;;;12.43;11.17;;;18.70;84.10;;;;;;5114726;28;20446;-70
2021/06/24 05:46:55;;;;;;;11.63;10.50;;;18.70;84.00;;;;;;5114563;28;20434;-70
2021/06/24 05:49:22;;;;;;;13.10;10.87;;;18.80;84.00;;;;;;5114632;28;20811;-70
2021/06/24 05:51:50;;;;;;;14.93;11.40;;;18.80;84.00;;;;;;5114541;28;20459;-70
2021/06/24 05:54:16;;;;;;;13.63;12.23;;;18.80;83.60;;;;;;5114256;28;20812;-70
2021/06/24 05:56:43;;;;;;;11.80;10.57;;;18.80;83.50;;;;;;5114199;28;20992;-71
2021/06/24 05:59:11;;;;;;;13.70;11.17;;;18.90;83.70;;;;;;5114571;28;20447;-70
2021/06/24 06:01:40;;;;;;;15.10;11.97;;;18.90;83.20;;;;;;5114136;28;20462;-70
2021/06/24 06:04:07;;;;;;;11.70;10.50;;;19.00;83.00;;;;;;5114093;28;20827;-70
2021/06/24 06:06:34;;;;;;;12.23;10.00;;;19.10;82.90;;;;;;5114425;28;20446;-70
2021/06/24 06:09:01;;;;;;;13.83;9.90;;;19.20;82.80;;;;;;5115094;28;20439;-70
2021/06/24 06:11:27;;;;;;;12.97;10.13;;;19.30;82.60;;;;;;5114239;28;20459;-69
2021/06/24 06:13:54;;;;;;;10.33;8.37;;;19.40;82.10;;;;;;5114245;28;20431;-69
2021/06/24 06:16:22;;;;;;;13.73;11.60;;;19.60;81.60;;;;;;5114094;28;20475;-69
2021/06/24 06:18:49;;;;;;;14.33;10.60;;;19.70;81.50;;;;;;5114189;28;20446;-69
2021/06/24 06:21:16;;;;;;;11.27;8.83;;;19.90;81.50;;;;;;5113686;28;20840;-69
2021/06/24 06:23:43;;;;;;;11.80;10.60;;;20.10;80.40;;;;;;5113846;28;20944;-70
2021/06/24 06:26:10;;;;;;;12.17;10.93;;;20.30;79.10;;;;;;5114165;28;20415;-70
2021/06/24 06:28:37;;;;;;;12.60;10.23;;;20.50;78.90;;;;;;5114150;28;20446;-70
2021/06/24 06:31:03;;;;;;;20.37;11.70;;;20.70;77.70;;;;;;5114015;28;20460;-70
2021/06/24 06:33:31;;;;;;;18.70;12.10;;;20.80;76.20;;;;;;5114229;28;20442;-70
2021/06/24 06:35:58;;;;;;;12.67;11.27;;;20.90;75.40;;;;;;5113877;28;20471;-70
2021/06/24 06:38:26;;;;;;;12.70;11.37;;;21.00;75.60;;;;;;5114117;28;20427;-70
2021/06/24 06:40:53;;;;;;;10.30;8.63;;;21.00;75.20;;;;;;5113536;28;20494;-70
2021/06/24 06:43:19;;;;;;;10.70;9.47;;;21.10;74.90;;;;;;5113950;28;20442;-70
2021/06/24 06:45:47;;;;;;;12.60;11.10;;;21.20;75.10;;;;;;5113956;28;20427;-70
2021/06/24 06:48:14;;;;;;;14.27;10.60;;;21.30;74.90;;;;;;5114134;28;20454;-70
2021/06/24 06:50:43;;;;;;;12.43;11.03;;;21.40;74.30;;;;;;5117272;28;20466;-70
2021/06/24 06:53:10;;;;;;;12.60;11.40;;;21.50;74.10;;;;;;5118242;27;20510;-70
2021/06/24 06:55:38;;;;;;;15.03;13.50;;;21.50;73.70;;;;;;5118156;28;20446;-70
2021/06/24 06:58:05;;;;;;;18.03;14.33;;;21.50;73.20;;;;;;5118126;28;20438;-70
2021/06/24 07:00:33;;;;;;;15.27;13.20;;;21.40;73.20;;;;;;5117987;28;20465;-69
2021/06/24 07:03:00;;;;;;;15.07;13.50;;;21.40;73.10;;;;;;5117682;28;20809;-70
2021/06/24 07:05:27;;;;;;;15.47;13.10;;;21.40;72.80;;;;;;5117979;28;20423;-69
2021/06/24 07:07:55;;;;;;;15.43;12.60;;;21.30;72.90;;;;;;5117657;28;20796;-69
2021/06/24 07:10:22;;;;;;;21.30;15.83;;;21.40;73.10;;;;;;5117805;28;20458;-69
2021/06/24 07:12:49;;;;;;;16.90;14.47;;;21.50;73.00;;;;;;5117801;28;20445;-69
2021/06/24 07:15:16;;;;;;;17.00;15.23;;;21.60;73.00;;;;;;5117683;28;20427;-69
2021/06/24 07:17:43;;;;;;;17.10;15.50;;;21.60;73.10;;;;;;5117531;28;20481;-69
2021/06/24 07:20:12;;;;;;;17.67;15.77;;;21.80;72.50;;;;;;5117269;28;20471;-69
2021/06/24 07:22:39;;;;;;;18.73;16.90;;;21.90;71.70;;;;;;5117486;28;20454;-69
2021/06/24 07:25:09;;;;;;;19.20;17.53;;;22.10;71.40;;;;;;5117497;28;20446;-69
2021/06/24 07:27:36;;;;;;;23.30;20.87;;;22.20;70.60;;;;;;5117474;28;20415;-69
2021/06/24 07:30:04;;;;;;;22.73;20.33;;;22.30;70.60;;;;;;5117427;28;20462;-70
2021/06/24 07:32:31;;;;;;;23.93;19.47;;;22.50;70.30;;;;;;5117120;28;20952;-69
2021/06/24 07:34:57;;;;;;;23.47;21.00;;;22.60;69.60;;;;;;5117356;28;20453;-69
2021/06/24 07:37:24;;;;;;;18.33;16.53;;;22.70;69.20;;;;;;5117283;28;20471;-70
2021/06/24 07:39:51;;;;;;;24.43;21.83;;;22.80;68.90;;;;;;5117250;28;20454;-69
2021/06/24 07:42:20;;;;;;;19.57;17.90;;;22.90;68.50;;;;;;5117194;28;20442;-69
2021/06/24 07:44:47;;;;;;;20.23;18.10;;;23.00;68.20;;;;;;5117094;28;20504;-71
2021/06/24 07:47:14;;;;;;;25.23;22.47;;;23.00;68.20;;;;;;5116794;28;20909;-71
2021/06/24 07:49:41;;;;;;;27.93;25.00;;;23.10;67.90;;;;;;5116998;28;20924;-69
2021/06/24 07:52:08;;;;;;;29.50;26.90;;;23.20;67.30;;;;;;5116955;28;20438;-70
2021/06/24 07:54:34;;;;;;;26.73;24.27;;;23.20;67.20;;;;;;5116981;28;20423;-69
2021/06/24 07:57:01;;;;;;;26.50;24.00;;;23.20;67.00;;;;;;5116829;28;20579;-69
2021/06/24 07:59:29;;;;;;;28.53;25.03;;;23.20;66.90;;;;;;5116638;28;20443;-69
2021/06/24 08:01:56;;;;;;;24.10;22.00;;;23.30;66.80;;;;;;5115698;28;20427;-69
2021/06/24 08:04:23;;;;;;;29.20;26.33;;;23.40;66.50;;;;;;5116810;28;20435;-69
2021/06/24 08:06:52;;;;;;;24.80;22.57;;;23.60;66.50;;;;;;5117385;28;20458;-69
2021/06/24 08:09:18;;;;;;;30.87;27.77;;;23.60;65.90;;;;;;5116748;28;20765;-69
2021/06/24 08:11:45;;;;;;;33.07;30.07;;;23.60;65.60;;;;;;5116506;28;20488;-69
2021/06/24 08:14:12;;;;;;;29.77;27.30;;;23.60;65.80;;;;;;5116274;28;20997;-70
2021/06/24 08:16:41;;;;;;;28.77;26.27;;;23.70;65.70;;;;;;5116438;28;20485;-69
2021/06/24 08:19:08;;;;;;;27.17;24.53;;;23.80;65.50;;;;;;5116260;28;20419;-69
2021/06/24 08:21:35;;;;;;;26.33;23.67;;;23.90;65.40;;;;;;5116422;28;20462;-69
2021/06/24 08:24:01;;;;;;;29.43;26.57;;;24.00;64.90;;;;;;5116064;28;20929;-70
2021/06/24 08:26:28;;;;;;;26.47;24.07;;;24.00;64.80;;;;;;5116326;28;20435;-69
2021/06/24 08:28:55;;;;;;;29.70;26.80;;;24.00;64.50;;;;;;5116272;28;20427;-69
2021/06/24 08:31:22;;;;;;;28.47;25.37;;;24.00;64.50;;;;;;5116190;28;20463;-70
2021/06/24 08:33:50;;;;;;;29.80;27.13;;;23.90;65.00;;;;;;5116172;28;20437;-70
2021/06/24 08:36:17;;;;;;;30.23;27.23;;;23.90;65.10;;;;;;5116059;28;20439;-69
2021/06/24 08:38:43;;;;;;;31.37;28.30;;;23.90;65.10;;;;;;5116010;28;20447;-69
2021/06/24 08:41:13;;;;;;;33.80;30.70;;;23.80;64.30;;;;;;5115686;28;20466;-69
2021/06/24 08:43:40;;;;;;;31.87;28.87;;;23.80;64.30;;;;;;5116069;28;20466;-69
2021/06/24 08:46:08;;;;;;;31.13;28.23;;;23.80;64.20;;;;;;5116146;28;20476;-70
2021/06/24 08:48:36;;;;;;;33.23;28.87;;;23.80;64.70;;;;;;5116468;28;20446;-69
2021/06/24 08:51:05;;;;;;;33.37;30.17;;;23.80;64.90;;;;;;5115890;28;20463;-70
2021/06/24 08:53:32;;;;;;;33.60;30.47;;;24.00;64.40;;;;;;5115566;27;20464;-70
2021/06/24 08:56:00;;;;;;;38.07;34.27;;;24.10;64.40;;;;;;5115771;28;20427;-69
2021/06/24 08:58:27;;;;;;;45.70;40.97;;;24.30;63.80;;;;;;5115335;28;21066;-69
2021/06/24 09:00:54;;;;;;;43.27;39.17;;;24.40;61.20;;;;;;5115648;28;20463;-69
2021/06/24 09:03:22;;;;;;;40.33;36.33;;;24.50;62.00;;;;;;5115363;28;20884;-70
2021/06/24 09:05:51;;;;;;;38.00;34.60;;;24.50;62.50;;;;;;5115606;28;20514;-70
2021/06/24 09:08:37;;;;;;;37.80;34.10;;;24.70;62.50;;;;;;5115572;28;20423;-70
2021/06/24 09:11:19;;;;;;;38.63;35.00;;;24.80;61.70;;;;;;5115401;28;20463;-70
2021/06/24 09:13:59;;;;;;;37.37;34.17;;;25.10;60.70;;;;;;5114828;28;20434;-70
2021/06/24 09:16:28;;;;;;;36.90;33.17;;;25.40;60.20;;;;;;5115016;28;20427;-71
2021/06/24 09:19:12;;;;;;;34.40;29.50;;;25.70;59.10;;;;;;5115301;28;20431;-69
2021/06/24 09:21:39;;;;;;;36.23;32.73;;;26.20;58.70;;;;;;5115218;28;20515;-69
2021/06/24 09:24:21;;;;;;;33.33;30.07;;;26.70;57.10;;;;;;5114951;28;20435;-70
2021/06/24 09:26:48;;;;;;;31.37;28.50;;;27.20;55.30;;;;;;5115253;28;20885;-69
2021/06/24 09:29:16;;;;;;;34.03;30.70;;;27.60;54.10;;;;;;5115126;28;20451;-69
2021/06/24 09:31:43;;;;;;;25.77;23.57;;;28.10;53.60;;;;;;5115033;28;20459;-69
2021/06/24 09:34:11;;;;;;;29.27;26.67;;;28.60;52.20;;;;;;5115088;28;20434;-69
2021/06/24 09:36:39;;;;;;;27.73;25.00;;;29.00;50.70;;;;;;5114946;28;20874;-69
2021/06/24 09:39:10;;;;;;;29.60;26.70;;;29.40;49.60;;;;;;5114979;28;20427;-71
2021/06/24 09:41:37;;;;;;;32.30;29.23;;;29.70;48.80;;;;;;5114821;28;20467;-70
2021/06/24 09:44:20;;;;;;;27.17;24.97;;;29.90;47.60;;;;;;5115440;28;20443;-70
2021/06/24 09:46:47;;;;;;;34.23;31.30;;;30.00;47.40;;;;;;5115092;28;20430;-70
2021/06/24 09:49:26;;;;;;;31.73;29.03;;;30.00;46.70;;;;;;5114594;28;20445;-70
2021/06/24 09:51:53;;;;;;;30.23;27.27;;;29.80;47.10;;;;;;5117761;28;20458;-71
2021/06/24 09:54:30;;;;;;;27.50;25.23;;;29.70;47.60;;;;;;5121184;28;20439;-71
2021/06/24 09:56:58;;;;;;;32.90;29.60;;;29.60;48.00;;;;;;5118250;28;20490;-71
2021/06/24 09:59:32;;;;;;;33.90;30.90;;;29.60;47.50;;;;;;5118989;28;20427;-69
2021/06/24 10:02:07;;;;;;;36.30;33.20;;;29.50;46.40;;;;;;5119535;28;20427;-70
2021/06/24 10:04:34;;;;;;;32.20;29.40;;;29.40;46.40;;;;;;5119526;28;20422;-71
2021/06/24 10:07:02;;;;;;;38.00;34.47;;;29.30;46.90;;;;;;5119749;28;20434;-69
2021/06/24 10:09:32;;;;;;;36.20;33.30;;;29.10;47.70;;;;;;5119974;28;20449;-70
2021/06/24 10:11:59;;;;;;;39.33;36.10;;;28.80;47.60;;;;;;5120115;28;20545;-71
2021/06/24 10:14:27;;;;;;;40.27;36.70;;;28.60;48.40;;;;;;5118799;28;20436;-69
2021/06/24 10:16:56;;;;;;;35.43;32.33;;;28.40;49.30;;;;;;5120855;28;20439;-71
2021/06/24 10:19:26;;;;;;;36.53;33.20;;;28.20;49.90;;;;;;5120769;28;20451;-71
2021/06/24 10:21:56;;;;;;;34.13;31.03;;;28.10;50.40;;;;;;5119432;28;20473;-71
2021/06/24 10:24:31;;;;;;;43.83;39.97;;;28.10;50.70;;;;;;5118373;28;20768;-69
2021/06/24 10:27:01;;;;;;;42.63;39.00;;;28.30;50.30;;;;;;5118483;28;20794;-70
2021/06/24 10:29:43;;;;;;;39.90;36.33;;;28.20;49.50;;;;;;5118364;28;20427;-71
2021/06/24 10:32:29;;;;;;;40.30;36.77;;;28.20;49.80;;;;;;5118884;28;20423;-71
2021/06/24 10:34:57;;;;;;;41.23;37.13;;;28.30;50.00;;;;;;5117814;28;20914;-71
2021/06/24 10:37:26;;;;;;;34.57;31.30;;;28.70;50.10;;;;;;5115791;28;20841;-71
2021/06/24 10:39:56;;;;;;;37.37;34.40;;;29.40;49.20;;;;;;5115678;28;20467;-71
2021/06/24 10:42:24;;;;;;;37.80;34.67;;;30.20;47.40;;;;;;5119134;28;20453;-71
2021/06/24 10:44:58;;;;;;;35.57;32.30;;;30.70;45.80;;;;;;5114487;28;20442;-71
2021/06/24 10:47:43;;;;;;;30.10;27.40;;;31.10;44.30;;;;;;5114641;28;20427;-70
2021/06/24 10:50:39;;;;;;;28.30;26.00;;;31.70;44.00;;;;;;5113997;28;20561;-70
2021/06/24 10:53:39;;;;;;;31.80;29.20;;;32.40;42.70;;;;;;5114165;28;20823;-71
2021/06/24 10:56:27;;;;;;;30.10;27.00;;;33.00;41.00;;;;;;5113758;28;20430;-71
2021/06/24 10:58:54;;;;;;;24.30;22.30;;;33.50;38.90;;;;;;5113919;28;20850;-71
2021/06/24 11:01:45;;;;;;;32.07;29.67;;;33.90;37.90;;;;;;5114096;28;20549;-71
2021/06/24 11:04:30;;;;;;;28.73;26.37;;;34.30;37.50;;;;;;5114023;28;20851;-70
2021/06/24 11:06:58;;;;;;;26.77;24.47;;;34.20;37.50;;;;;;5113597;28;20422;-71
2021/06/24 11:09:25;;;;;;;28.93;26.63;;;33.90;37.70;;;;;;5113814;28;20442;-70
2021/06/24 11:11:54;;;;;;;24.93;23.10;;;33.90;38.20;;;;;;5114149;28;20474;-70
2021/06/24 11:14:53;;;;;;;23.27;21.27;;;34.10;38.40;;;;;;5113639;28;20476;-70
2021/06/24 11:17:49;;;;;;;25.33;23.20;;;34.00;38.10;;;;;;5113722;28;20561;-70
2021/06/24 11:20:19;;;;;;;26.17;24.07;;;33.70;38.30;;;;;;5066592;28;20482;-70
2021/06/24 11:22:49;;;;;;;26.10;24.10;;;33.50;38.50;;;;;;5114824;28;20499;-70
2021/06/24 11:25:16;;;;;;;23.87;21.97;;;33.60;38.70;;;;;;5113708;28;20425;-74
2021/06/24 11:27:44;;;;;;;23.47;21.67;;;33.90;38.60;;;;;;5115713;28;20437;-78
2021/06/24 11:30:13;;;;;;;26.67;24.27;;;34.10;37.60;;;;;;5113913;28;20480;-75
2021/06/24 11:32:44;;;;;;;29.30;26.80;;;34.00;37.40;;;;;;5114039;28;20422;-75
2021/06/24 11:35:29;;;;;;;24.20;22.40;;;33.90;37.80;;;;;;5114525;28;20901;-77
2021/06/24 11:38:01;;;;;;;21.33;19.37;;;33.70;37.50;;;;;;5118955;28;20469;-76
2021/06/24 11:40:29;;;;;;;25.47;23.23;;;33.50;38.10;;;;;;5118145;27;20544;-76
2021/06/24 11:42:58;;;;;;;24.70;22.53;;;33.50;38.60;;;;;;5117494;28;20468;-76
2021/06/24 11:45:26;;;;;;;22.63;20.80;;;33.80;37.60;;;;;;5117875;28;20446;-76
2021/06/24 11:47:56;;;;;;;20.63;19.00;;;34.10;37.10;;;;;;5117551;28;20874;-77
2021/06/24 12:04:12;;;;;;;21.70;20.10;;;36.70;33.20;;;;;;5117892;28;20524;-76
2021/06/24 12:06:59;;;;;;;18.30;16.73;;;37.10;31.90;;;;;;5119218;28;20801;-77
2021/06/24 12:09:28;;;;;;;19.97;18.57;;;37.40;31.10;;;;;;5119395;28;20427;-77
2021/06/24 12:11:57;;;;;;;17.97;16.53;;;37.90;30.80;;;;;;5118455;28;20220;-76
2021/06/24 12:14:28;;;;;;;22.53;20.43;;;38.10;30.20;;;;;;5118042;28;20208;-77
2021/06/24 12:17:13;;;;;;;17.10;15.70;;;38.00;29.40;;;;;;5118116;28;20180;-77
2021/06/24 12:19:45;;;;;;;17.93;16.63;;;38.10;29.60;;;;;;5118198;28;20458;-77
2021/06/24 12:22:15;;;;;;;20.10;18.67;;;38.10;29.70;;;;;;5117248;28;20188;-75
2021/06/24 12:24:42;;;;;;;18.53;17.23;;;38.30;29.80;;;;;;5119467;28;20200;-78
2021/06/24 12:27:20;;;;;;;15.03;13.83;;;38.40;29.30;;;;;;5123511;28;20211;-78
2021/06/24 12:29:50;;;;;;;14.30;13.20;;;38.60;28.80;;;;;;5126365;28;20249;-76
2021/06/24 12:32:18;;;;;;;16.23;14.93;;;38.80;29.00;;;;;;5121399;28;20192;-76
2021/06/24 12:34:45;;;;;;;19.03;17.63;;;38.80;29.00;;;;;;5119844;28;20208;-77
2021/06/24 12:37:12;;;;;;;18.53;17.03;;;38.50;28.10;;;;;;5120314;28;20196;-76
2021/06/24 12:39:39;;;;;;;18.37;16.90;;;37.70;28.60;;;;;;5117468;28;20975;-76
2021/06/24 12:42:07;;;;;;;17.03;15.83;;;37.00;30.00;;;;;;5118473;28;20450;-75
2021/06/24 12:44:38;;;;;;;17.20;15.90;;;36.20;31.40;;;;;;5119118;28;20430;-76
2021/06/24 12:47:07;;;;;;;18.03;16.63;;;35.50;32.50;;;;;;5120085;28;20969;-77
2021/06/24 12:49:35;;;;;;;17.43;16.23;;;35.00;33.40;;;;;;5120531;28;20430;-75